sensor_id;sensor_type;location;lat;lon;timestamp;P1;durP1;ratioP1;P2;durP2;ratioP2
41436;SDS011;27178;49.460;10.850;2023-12-20T00:02:23;3.30;;;3.00;;
41436;SDS011;27178;49.460;10.850;2023-12-20T00:04:54;3.17;;;2.83;;
41436;SDS011;27178;49.460;10.850;2023-12-20T00:07:22;4.63;;;3.20;;
41436;SDS011;27178;49.460;10.850;2023-12-20T00:09:51;3.93;;;3.07;;
41436;SDS011;27178;49.460;10.850;2023-12-20T00:12:19;3.00;;;2.70;;
41436;SDS011;27178;49.460;10.850;2023-12-20T00:14:48;4.13;;;2.90;;
41436;SDS011;27178;49.460;10.850;2023-12-20T00:17:16;4.70;;;3.03;;
41436;SDS011;27178;49.460;10.850;2023-12-20T00:19:44;3.07;;;2.77;;
41436;SDS011;27178;49.460;10.850;2023-12-20T00:22:14;3.27;;;2.97;;
41436;SDS011;27178;49.460;10.850;2023-12-20T00:24:42;3.80;;;3.20;;
41436;SDS011;27178;49.460;10.850;2023-12-20T00:27:10;3.67;;;2.80;;
41436;SDS011;27178;49.460;10.850;2023-12-20T00:29:38;3.70;;;2.53;;
41436;SDS011;27178;49.460;10.850;2023-12-20T00:32:13;3.90;;;3.00;;
41436;SDS011;27178;49.460;10.850;2023-12-20T00:34:41;2.80;;;2.47;;
41436;SDS011;27178;49.460;10.850;2023-12-20T00:37:11;2.83;;;2.63;;
41436;SDS011;27178;49.460;10.850;2023-12-20T00:39:40;2.57;;;2.37;;
41436;SDS011;27178;49.460;10.850;2023-12-20T00:42:08;4.10;;;2.67;;
41436;SDS011;27178;49.460;10.850;2023-12-20T00:44:37;3.20;;;2.37;;
41436;SDS011;27178;49.460;10.850;2023-12-20T00:47:07;2.70;;;2.50;;
41436;SDS011;27178;49.460;10.850;2023-12-20T00:49:36;2.27;;;2.07;;
41436;SDS011;27178;49.460;10.850;2023-12-20T00:52:07;2.60;;;2.20;;
41436;SDS011;27178;49.460;10.850;2023-12-20T00:54:36;2.50;;;2.30;;
41436;SDS011;27178;49.460;10.850;2023-12-20T00:57:05;3.73;;;2.23;;
41436;SDS011;27178;49.460;10.850;2023-12-20T00:59:34;1.80;;;1.57;;
41436;SDS011;27178;49.460;10.850;2023-12-20T01:02:03;1.90;;;1.80;;
41436;SDS011;27178;49.460;10.850;2023-12-20T01:04:31;1.80;;;1.70;;
41436;SDS011;27178;49.460;10.850;2023-12-20T01:07:00;1.87;;;1.77;;
41436;SDS011;27178;49.460;10.850;2023-12-20T01:09:28;2.80;;;1.77;;
41436;SDS011;27178;49.460;10.850;2023-12-20T01:11:57;1.87;;;1.70;;
41436;SDS011;27178;49.460;10.850;2023-12-20T01:14:26;1.60;;;1.50;;
41436;SDS011;27178;49.460;10.850;2023-12-20T01:16:55;1.75;;;1.58;;
41436;SDS011;27178;49.460;10.850;2023-12-20T01:19:23;1.73;;;1.57;;
41436;SDS011;27178;49.460;10.850;2023-12-20T01:21:54;1.63;;;1.53;;
41436;SDS011;27178;49.460;10.850;2023-12-20T01:24:23;1.57;;;1.47;;
41436;SDS011;27178;49.460;10.850;2023-12-20T01:26:51;1.27;;;1.17;;
41436;SDS011;27178;49.460;10.850;2023-12-20T01:29:19;1.40;;;1.30;;
41436;SDS011;27178;49.460;10.850;2023-12-20T01:31:48;1.20;;;1.20;;
41436;SDS011;27178;49.460;10.850;2023-12-20T01:34:17;1.50;;;1.33;;
41436;SDS011;27178;49.460;10.850;2023-12-20T01:36:46;1.57;;;1.37;;
41436;SDS011;27178;49.460;10.850;2023-12-20T01:39:14;1.50;;;1.40;;
41436;SDS011;27178;49.460;10.850;2023-12-20T01:41:53;1.60;;;1.50;;
41436;SDS011;27178;49.460;10.850;2023-12-20T01:44:22;1.30;;;1.20;;
41436;SDS011;27178;49.460;10.850;2023-12-20T01:46:52;1.30;;;1.20;;
41436;SDS011;27178;49.460;10.850;2023-12-20T01:49:20;1.20;;;1.10;;
41436;SDS011;27178;49.460;10.850;2023-12-20T01:51:49;1.08;;;1.08;;
41436;SDS011;27178;49.460;10.850;2023-12-20T01:54:18;1.00;;;1.00;;
41436;SDS011;27178;49.460;10.850;2023-12-20T01:56:48;1.23;;;1.17;;
41436;SDS011;27178;49.460;10.850;2023-12-20T01:59:17;1.30;;;1.10;;
41436;SDS011;27178;49.460;10.850;2023-12-20T02:01:48;1.30;;;0.93;;
41436;SDS011;27178;49.460;10.850;2023-12-20T02:04:18;0.90;;;0.90;;
41436;SDS011;27178;49.460;10.850;2023-12-20T02:06:47;1.00;;;0.93;;
41436;SDS011;27178;49.460;10.850;2023-12-20T02:09:19;0.80;;;0.80;;
41436;SDS011;27178;49.460;10.850;2023-12-20T02:11:47;0.93;;;0.87;;
41436;SDS011;27178;49.460;10.850;2023-12-20T02:14:16;1.00;;;0.83;;
41436;SDS011;27178;49.460;10.850;2023-12-20T02:16:45;0.80;;;0.80;;
41436;SDS011;27178;49.460;10.850;2023-12-20T02:19:14;0.83;;;0.83;;
41436;SDS011;27178;49.460;10.850;2023-12-20T02:21:44;0.67;;;0.67;;
41436;SDS011;27178;49.460;10.850;2023-12-20T02:24:13;0.60;;;0.60;;
41436;SDS011;27178;49.460;10.850;2023-12-20T02:26:41;1.13;;;0.80;;
41436;SDS011;27178;49.460;10.850;2023-12-20T02:29:12;0.57;;;0.57;;
41436;SDS011;27178;49.460;10.850;2023-12-20T02:31:40;0.60;;;0.60;;
41436;SDS011;27178;49.460;10.850;2023-12-20T02:34:09;0.87;;;0.87;;
41436;SDS011;27178;49.460;10.850;2023-12-20T02:36:37;0.73;;;0.73;;
41436;SDS011;27178;49.460;10.850;2023-12-20T02:39:07;0.73;;;0.73;;
41436;SDS011;27178;49.460;10.850;2023-12-20T02:41:36;0.75;;;0.63;;
41436;SDS011;27178;49.460;10.850;2023-12-20T02:44:04;0.40;;;0.40;;
41436;SDS011;27178;49.460;10.850;2023-12-20T02:46:32;0.83;;;0.83;;
41436;SDS011;27178;49.460;10.850;2023-12-20T02:49:01;0.60;;;0.60;;
41436;SDS011;27178;49.460;10.850;2023-12-20T02:51:29;0.70;;;0.70;;
41436;SDS011;27178;49.460;10.850;2023-12-20T02:53:58;0.60;;;0.60;;
41436;SDS011;27178;49.460;10.850;2023-12-20T02:56:27;0.70;;;0.70;;
41436;SDS011;27178;49.460;10.850;2023-12-20T02:58:56;0.60;;;0.60;;
41436;SDS011;27178;49.460;10.850;2023-12-20T03:01:24;0.83;;;0.50;;
41436;SDS011;27178;49.460;10.850;2023-12-20T03:03:53;0.50;;;0.50;;
41436;SDS011;27178;49.460;10.850;2023-12-20T03:06:22;0.50;;;0.50;;
41436;SDS011;27178;49.460;10.850;2023-12-20T03:08:50;0.40;;;0.40;;
41436;SDS011;27178;49.460;10.850;2023-12-20T03:11:18;0.40;;;0.40;;
41436;SDS011;27178;49.460;10.850;2023-12-20T03:13:47;0.53;;;0.53;;
41436;SDS011;27178;49.460;10.850;2023-12-20T03:16:16;0.83;;;0.60;;
41436;SDS011;27178;49.460;10.850;2023-12-20T03:18:45;0.50;;;0.50;;
41436;SDS011;27178;49.460;10.850;2023-12-20T03:21:13;0.43;;;0.43;;
41436;SDS011;27178;49.460;10.850;2023-12-20T03:23:41;0.50;;;0.50;;
41436;SDS011;27178;49.460;10.850;2023-12-20T03:26:10;0.40;;;0.40;;
41436;SDS011;27178;49.460;10.850;2023-12-20T03:28:39;0.50;;;0.50;;
41436;SDS011;27178;49.460;10.850;2023-12-20T03:31:09;0.40;;;0.40;;
41436;SDS011;27178;49.460;10.850;2023-12-20T03:33:38;0.40;;;0.40;;
41436;SDS011;27178;49.460;10.850;2023-12-20T03:36:06;0.60;;;0.60;;
41436;SDS011;27178;49.460;10.850;2023-12-20T03:38:35;0.73;;;0.70;;
41436;SDS011;27178;49.460;10.850;2023-12-20T03:41:04;0.53;;;0.53;;
41436;SDS011;27178;49.460;10.850;2023-12-20T03:43:32;0.50;;;0.50;;
41436;SDS011;27178;49.460;10.850;2023-12-20T03:46:02;0.43;;;0.43;;
41436;SDS011;27178;49.460;10.850;2023-12-20T03:48:33;0.63;;;0.63;;
41436;SDS011;27178;49.460;10.850;2023-12-20T03:51:01;0.80;;;0.80;;
41436;SDS011;27178;49.460;10.850;2023-12-20T03:53:30;0.50;;;0.50;;
41436;SDS011;27178;49.460;10.850;2023-12-20T03:55:58;0.50;;;0.50;;
41436;SDS011;27178;49.460;10.850;2023-12-20T03:58:27;0.50;;;0.50;;
41436;SDS011;27178;49.460;10.850;2023-12-20T04:00:55;1.00;;;0.70;;
41436;SDS011;27178;49.460;10.850;2023-12-20T04:03:24;0.70;;;0.70;;
41436;SDS011;27178;49.460;10.850;2023-12-20T04:05:53;0.60;;;0.60;;
41436;SDS011;27178;49.460;10.850;2023-12-20T04:08:22;0.50;;;0.50;;
41436;SDS011;27178;49.460;10.850;2023-12-20T04:10:50;0.70;;;0.70;;
41436;SDS011;27178;49.460;10.850;2023-12-20T04:13:18;0.30;;;0.30;;
41436;SDS011;27178;49.460;10.850;2023-12-20T04:15:46;0.57;;;0.57;;
41436;SDS011;27178;49.460;10.850;2023-12-20T04:18:17;0.73;;;0.73;;
41436;SDS011;27178;49.460;10.850;2023-12-20T04:20:45;0.80;;;0.80;;
41436;SDS011;27178;49.460;10.850;2023-12-20T04:23:15;0.80;;;0.80;;
41436;SDS011;27178;49.460;10.850;2023-12-20T04:25:44;1.13;;;0.60;;
41436;SDS011;27178;49.460;10.850;2023-12-20T04:28:13;0.50;;;0.50;;
41436;SDS011;27178;49.460;10.850;2023-12-20T04:30:42;0.40;;;0.40;;
41436;SDS011;27178;49.460;10.850;2023-12-20T04:33:11;0.60;;;0.60;;
41436;SDS011;27178;49.460;10.850;2023-12-20T04:35:39;0.70;;;0.70;;
41436;SDS011;27178;49.460;10.850;2023-12-20T04:38:09;0.57;;;0.50;;
41436;SDS011;27178;49.460;10.850;2023-12-20T04:40:39;0.57;;;0.57;;
41436;SDS011;27178;49.460;10.850;2023-12-20T04:43:08;0.60;;;0.60;;
41436;SDS011;27178;49.460;10.850;2023-12-20T04:45:36;0.57;;;0.57;;
41436;SDS011;27178;49.460;10.850;2023-12-20T04:48:05;0.80;;;0.80;;
41436;SDS011;27178;49.460;10.850;2023-12-20T04:50:33;0.53;;;0.53;;
41436;SDS011;27178;49.460;10.850;2023-12-20T04:53:02;0.83;;;0.83;;
41436;SDS011;27178;49.460;10.850;2023-12-20T04:55:30;0.53;;;0.53;;
41436;SDS011;27178;49.460;10.850;2023-12-20T04:58:00;0.50;;;0.50;;
41436;SDS011;27178;49.460;10.850;2023-12-20T05:00:28;0.60;;;0.60;;
41436;SDS011;27178;49.460;10.850;2023-12-20T05:02:57;0.50;;;0.50;;
41436;SDS011;27178;49.460;10.850;2023-12-20T05:05:25;0.60;;;0.60;;
41436;SDS011;27178;49.460;10.850;2023-12-20T05:07:53;0.60;;;0.60;;
41436;SDS011;27178;49.460;10.850;2023-12-20T05:10:22;0.57;;;0.57;;
41436;SDS011;27178;49.460;10.850;2023-12-20T05:12:50;0.60;;;0.60;;
41436;SDS011;27178;49.460;10.850;2023-12-20T05:15:20;0.60;;;0.60;;
41436;SDS011;27178;49.460;10.850;2023-12-20T05:17:49;0.50;;;0.50;;
41436;SDS011;27178;49.460;10.850;2023-12-20T05:20:18;0.60;;;0.60;;
41436;SDS011;27178;49.460;10.850;2023-12-20T05:22:46;0.63;;;0.63;;
41436;SDS011;27178;49.460;10.850;2023-12-20T05:25:14;0.40;;;0.40;;
41436;SDS011;27178;49.460;10.850;2023-12-20T05:27:43;0.50;;;0.50;;
41436;SDS011;27178;49.460;10.850;2023-12-20T05:30:12;0.47;;;0.47;;
41436;SDS011;27178;49.460;10.850;2023-12-20T05:32:42;0.63;;;0.63;;
41436;SDS011;27178;49.460;10.850;2023-12-20T05:35:11;0.50;;;0.50;;
41436;SDS011;27178;49.460;10.850;2023-12-20T05:37:40;0.93;;;0.50;;
41436;SDS011;27178;49.460;10.850;2023-12-20T05:40:08;0.50;;;0.50;;
41436;SDS011;27178;49.460;10.850;2023-12-20T05:42:37;0.50;;;0.50;;
41436;SDS011;27178;49.460;10.850;2023-12-20T05:45:06;0.50;;;0.50;;
41436;SDS011;27178;49.460;10.850;2023-12-20T05:47:35;0.60;;;0.60;;
41436;SDS011;27178;49.460;10.850;2023-12-20T05:50:05;0.60;;;0.60;;
41436;SDS011;27178;49.460;10.850;2023-12-20T05:52:35;0.70;;;0.70;;
41436;SDS011;27178;49.460;10.850;2023-12-20T05:55:03;0.70;;;0.70;;
41436;SDS011;27178;49.460;10.850;2023-12-20T05:57:31;0.50;;;0.50;;
41436;SDS011;27178;49.460;10.850;2023-12-20T06:00:00;0.70;;;0.70;;
41436;SDS011;27178;49.460;10.850;2023-12-20T06:02:29;0.70;;;0.70;;
41436;SDS011;27178;49.460;10.850;2023-12-20T06:04:58;0.70;;;0.70;;
41436;SDS011;27178;49.460;10.850;2023-12-20T06:07:28;0.90;;;0.90;;
41436;SDS011;27178;49.460;10.850;2023-12-20T06:09:56;0.60;;;0.60;;
41436;SDS011;27178;49.460;10.850;2023-12-20T06:12:24;0.70;;;0.70;;
41436;SDS011;27178;49.460;10.850;2023-12-20T06:14:53;0.77;;;0.57;;
41436;SDS011;27178;49.460;10.850;2023-12-20T06:17:22;0.90;;;0.90;;
41436;SDS011;27178;49.460;10.850;2023-12-20T06:19:50;0.63;;;0.63;;
41436;SDS011;27178;49.460;10.850;2023-12-20T06:22:19;0.70;;;0.70;;
41436;SDS011;27178;49.460;10.850;2023-12-20T06:24:49;0.80;;;0.80;;
41436;SDS011;27178;49.460;10.850;2023-12-20T06:27:17;0.83;;;0.83;;
41436;SDS011;27178;49.460;10.850;2023-12-20T06:29:45;0.60;;;0.60;;
41436;SDS011;27178;49.460;10.850;2023-12-20T06:32:14;0.60;;;0.60;;
41436;SDS011;27178;49.460;10.850;2023-12-20T06:34:42;0.90;;;0.90;;
41436;SDS011;27178;49.460;10.850;2023-12-20T06:37:11;1.10;;;1.10;;
41436;SDS011;27178;49.460;10.850;2023-12-20T06:39:39;0.60;;;0.60;;
41436;SDS011;27178;49.460;10.850;2023-12-20T06:42:09;0.63;;;0.63;;
41436;SDS011;27178;49.460;10.850;2023-12-20T06:44:37;1.00;;;1.00;;
41436;SDS011;27178;49.460;10.850;2023-12-20T06:47:06;0.83;;;0.83;;
41436;SDS011;27178;49.460;10.850;2023-12-20T06:49:34;1.10;;;0.90;;
41436;SDS011;27178;49.460;10.850;2023-12-20T06:52:03;0.90;;;0.90;;
41436;SDS011;27178;49.460;10.850;2023-12-20T06:54:32;0.93;;;0.90;;
41436;SDS011;27178;49.460;10.850;2023-12-20T06:57:01;1.53;;;1.30;;
41436;SDS011;27178;49.460;10.850;2023-12-20T06:59:32;1.20;;;1.20;;
41436;SDS011;27178;49.460;10.850;2023-12-20T07:02:00;0.90;;;0.90;;
41436;SDS011;27178;49.460;10.850;2023-12-20T07:04:28;1.13;;;1.03;;
41436;SDS011;27178;49.460;10.850;2023-12-20T07:06:57;1.50;;;1.40;;
41436;SDS011;27178;49.460;10.850;2023-12-20T07:09:26;1.10;;;1.10;;
41436;SDS011;27178;49.460;10.850;2023-12-20T07:11:54;1.30;;;1.20;;
41436;SDS011;27178;49.460;10.850;2023-12-20T07:14:23;1.30;;;1.20;;
41436;SDS011;27178;49.460;10.850;2023-12-20T07:16:53;1.40;;;1.30;;
41436;SDS011;27178;49.460;10.850;2023-12-20T07:19:21;1.20;;;1.20;;
41436;SDS011;27178;49.460;10.850;2023-12-20T07:21:50;1.20;;;1.20;;
41436;SDS011;27178;49.460;10.850;2023-12-20T07:24:18;1.30;;;1.20;;
41436;SDS011;27178;49.460;10.850;2023-12-20T07:26:47;1.03;;;1.03;;
41436;SDS011;27178;49.460;10.850;2023-12-20T07:29:16;1.20;;;1.20;;
41436;SDS011;27178;49.460;10.850;2023-12-20T07:31:44;1.60;;;1.50;;
41436;SDS011;27178;49.460;10.850;2023-12-20T07:34:14;1.37;;;1.27;;
41436;SDS011;27178;49.460;10.850;2023-12-20T07:36:42;1.40;;;1.30;;
41436;SDS011;27178;49.460;10.850;2023-12-20T07:39:11;1.10;;;1.10;;
41436;SDS011;27178;49.460;10.850;2023-12-20T07:41:39;1.57;;;1.47;;
41436;SDS011;27178;49.460;10.850;2023-12-20T07:44:09;1.23;;;1.23;;
41436;SDS011;27178;49.460;10.850;2023-12-20T07:46:38;1.63;;;1.53;;
41436;SDS011;27178;49.460;10.850;2023-12-20T07:49:11;1.30;;;1.30;;
41436;SDS011;27178;49.460;10.850;2023-12-20T07:51:42;1.50;;;1.40;;
41436;SDS011;27178;49.460;10.850;2023-12-20T07:54:10;1.17;;;1.17;;
41436;SDS011;27178;49.460;10.850;2023-12-20T07:56:39;1.43;;;1.33;;
41436;SDS011;27178;49.460;10.850;2023-12-20T07:59:07;1.40;;;1.30;;
41436;SDS011;27178;49.460;10.850;2023-12-20T08:01:50;1.70;;;1.60;;
41436;SDS011;27178;49.460;10.850;2023-12-20T08:04:19;1.50;;;1.40;;
41436;SDS011;27178;49.460;10.850;2023-12-20T08:06:50;1.40;;;1.30;;
41436;SDS011;27178;49.460;10.850;2023-12-20T08:09:18;1.30;;;1.30;;
41436;SDS011;27178;49.460;10.850;2023-12-20T08:11:46;1.40;;;1.30;;
41436;SDS011;27178;49.460;10.850;2023-12-20T08:14:15;1.50;;;1.40;;
41436;SDS011;27178;49.460;10.850;2023-12-20T08:16:43;1.43;;;1.33;;
41436;SDS011;27178;49.460;10.850;2023-12-20T08:19:12;1.67;;;1.57;;
41436;SDS011;27178;49.460;10.850;2023-12-20T08:21:41;2.20;;;1.60;;
41436;SDS011;27178;49.460;10.850;2023-12-20T08:24:11;1.27;;;1.17;;
41436;SDS011;27178;49.460;10.850;2023-12-20T08:26:39;1.90;;;1.80;;
41436;SDS011;27178;49.460;10.850;2023-12-20T08:29:08;1.37;;;1.27;;
41436;SDS011;27178;49.460;10.850;2023-12-20T08:31:36;1.50;;;1.40;;
41436;SDS011;27178;49.460;10.850;2023-12-20T08:34:04;1.60;;;1.50;;
41436;SDS011;27178;49.460;10.850;2023-12-20T08:36:34;1.80;;;1.70;;
41436;SDS011;27178;49.460;10.850;2023-12-20T08:39:03;1.60;;;1.50;;
41436;SDS011;27178;49.460;10.850;2023-12-20T08:41:35;1.73;;;1.63;;
41436;SDS011;27178;49.460;10.850;2023-12-20T08:44:03;1.90;;;1.80;;
41436;SDS011;27178;49.460;10.850;2023-12-20T08:46:32;2.40;;;1.87;;
41436;SDS011;27178;49.460;10.850;2023-12-20T08:49:00;1.80;;;1.70;;
41436;SDS011;27178;49.460;10.850;2023-12-20T08:51:29;1.70;;;1.60;;
41436;SDS011;27178;49.460;10.850;2023-12-20T08:53:57;1.70;;;1.60;;
41436;SDS011;27178;49.460;10.850;2023-12-20T08:56:25;1.63;;;1.53;;
41436;SDS011;27178;49.460;10.850;2023-12-20T08:58:54;1.87;;;1.77;;
41436;SDS011;27178;49.460;10.850;2023-12-20T09:01:23;1.80;;;1.70;;
41436;SDS011;27178;49.460;10.850;2023-12-20T09:03:51;2.73;;;1.60;;
41436;SDS011;27178;49.460;10.850;2023-12-20T09:06:20;2.07;;;1.87;;
41436;SDS011;27178;49.460;10.850;2023-12-20T09:08:48;2.17;;;1.70;;
41436;SDS011;27178;49.460;10.850;2023-12-20T09:11:17;2.50;;;1.70;;
41436;SDS011;27178;49.460;10.850;2023-12-20T09:13:45;1.60;;;1.50;;
41436;SDS011;27178;49.460;10.850;2023-12-20T09:16:15;2.67;;;1.57;;
41436;SDS011;27178;49.460;10.850;2023-12-20T09:18:44;1.40;;;1.30;;
41436;SDS011;27178;49.460;10.850;2023-12-20T09:21:12;1.30;;;1.20;;
41436;SDS011;27178;49.460;10.850;2023-12-20T09:23:40;1.40;;;1.23;;
41436;SDS011;27178;49.460;10.850;2023-12-20T09:26:09;2.87;;;1.40;;
41436;SDS011;27178;49.460;10.850;2023-12-20T09:28:37;2.17;;;1.23;;
41436;SDS011;27178;49.460;10.850;2023-12-20T09:31:07;1.87;;;1.20;;
41436;SDS011;27178;49.460;10.850;2023-12-20T09:33:37;1.40;;;1.30;;
41436;SDS011;27178;49.460;10.850;2023-12-20T09:36:05;1.60;;;1.50;;
41436;SDS011;27178;49.460;10.850;2023-12-20T09:38:34;1.90;;;1.33;;
41436;SDS011;27178;49.460;10.850;2023-12-20T09:41:02;1.47;;;1.30;;
41436;SDS011;27178;49.460;10.850;2023-12-20T09:43:31;3.33;;;1.50;;
41436;SDS011;27178;49.460;10.850;2023-12-20T09:46:05;2.27;;;1.50;;
41436;SDS011;27178;49.460;10.850;2023-12-20T09:48:36;1.77;;;1.23;;
41436;SDS011;27178;49.460;10.850;2023-12-20T09:51:06;2.60;;;1.23;;
41436;SDS011;27178;49.460;10.850;2023-12-20T09:53:34;2.67;;;1.60;;
41436;SDS011;27178;49.460;10.850;2023-12-20T09:56:07;1.77;;;1.30;;
41436;SDS011;27178;49.460;10.850;2023-12-20T09:58:36;2.53;;;1.20;;
41436;SDS011;27178;49.460;10.850;2023-12-20T10:01:06;2.40;;;1.40;;
41436;SDS011;27178;49.460;10.850;2023-12-20T10:03:36;2.17;;;1.30;;
41436;SDS011;27178;49.460;10.850;2023-12-20T10:06:09;2.27;;;1.67;;
41436;SDS011;27178;49.460;10.850;2023-12-20T10:08:38;1.30;;;1.20;;
41436;SDS011;27178;49.460;10.850;2023-12-20T10:11:06;4.13;;;1.47;;
41436;SDS011;27178;49.460;10.850;2023-12-20T10:13:37;3.63;;;1.70;;
41436;SDS011;27178;49.460;10.850;2023-12-20T10:16:08;1.90;;;1.40;;
41436;SDS011;27178;49.460;10.850;2023-12-20T10:18:37;2.70;;;1.70;;
41436;SDS011;27178;49.460;10.850;2023-12-20T10:21:06;3.60;;;1.77;;
41436;SDS011;27178;49.460;10.850;2023-12-20T10:23:37;2.17;;;1.17;;
41436;SDS011;27178;49.460;10.850;2023-12-20T10:26:06;2.67;;;1.30;;
41436;SDS011;27178;49.460;10.850;2023-12-20T10:28:35;2.47;;;1.50;;
41436;SDS011;27178;49.460;10.850;2023-12-20T10:31:03;1.40;;;1.17;;
41436;SDS011;27178;49.460;10.850;2023-12-20T10:33:32;4.30;;;1.63;;
41436;SDS011;27178;49.460;10.850;2023-12-20T10:36:03;1.47;;;1.30;;
41436;SDS011;27178;49.460;10.850;2023-12-20T10:38:32;2.37;;;1.43;;
41436;SDS011;27178;49.460;10.850;2023-12-20T10:41:02;3.43;;;1.90;;
41436;SDS011;27178;49.460;10.850;2023-12-20T10:43:33;2.60;;;1.70;;
41436;SDS011;27178;49.460;10.850;2023-12-20T10:46:03;2.80;;;1.37;;
41436;SDS011;27178;49.460;10.850;2023-12-20T10:48:33;3.20;;;1.60;;
41436;SDS011;27178;49.460;10.850;2023-12-20T10:51:05;2.87;;;1.70;;
41436;SDS011;27178;49.460;10.850;2023-12-20T10:53:34;2.67;;;1.53;;
41436;SDS011;27178;49.460;10.850;2023-12-20T10:56:04;2.33;;;1.47;;
41436;SDS011;27178;49.460;10.850;2023-12-20T10:58:36;2.50;;;1.23;;
41436;SDS011;27178;49.460;10.850;2023-12-20T11:01:06;1.77;;;1.23;;
41436;SDS011;27178;49.460;10.850;2023-12-20T11:03:36;3.03;;;1.70;;
41436;SDS011;27178;49.460;10.850;2023-12-20T11:06:07;4.20;;;1.40;;
41436;SDS011;27178;49.460;10.850;2023-12-20T11:08:45;2.70;;;1.67;;
41436;SDS011;27178;49.460;10.850;2023-12-20T11:11:19;4.00;;;1.80;;
41436;SDS011;27178;49.460;10.850;2023-12-20T11:13:54;3.27;;;1.03;;
41436;SDS011;27178;49.460;10.850;2023-12-20T11:16:26;1.67;;;1.50;;
41436;SDS011;27178;49.460;10.850;2023-12-20T11:19:09;3.37;;;1.60;;
41436;SDS011;27178;49.460;10.850;2023-12-20T11:21:41;2.40;;;1.50;;
41436;SDS011;27178;49.460;10.850;2023-12-20T11:24:10;1.93;;;1.30;;
41436;SDS011;27178;49.460;10.850;2023-12-20T11:26:38;2.73;;;1.63;;
41436;SDS011;27178;49.460;10.850;2023-12-20T11:29:30;4.73;;;1.70;;
41436;SDS011;27178;49.460;10.850;2023-12-20T11:32:01;4.70;;;1.63;;
41436;SDS011;27178;49.460;10.850;2023-12-20T11:34:31;3.50;;;1.57;;
41436;SDS011;27178;49.460;10.850;2023-12-20T11:37:03;6.30;;;1.93;;
41436;SDS011;27178;49.460;10.850;2023-12-20T11:39:31;4.10;;;1.90;;
41436;SDS011;27178;49.460;10.850;2023-12-20T11:42:04;4.47;;;1.80;;
41436;SDS011;27178;49.460;10.850;2023-12-20T11:44:33;2.07;;;1.60;;
41436;SDS011;27178;49.460;10.850;2023-12-20T11:47:04;3.80;;;1.70;;
41436;SDS011;27178;49.460;10.850;2023-12-20T11:49:32;3.23;;;1.73;;
41436;SDS011;27178;49.460;10.850;2023-12-20T11:52:02;4.47;;;2.10;;
41436;SDS011;27178;49.460;10.850;2023-12-20T11:54:31;2.53;;;1.53;;
41436;SDS011;27178;49.460;10.850;2023-12-20T11:57:00;3.07;;;1.67;;
41436;SDS011;27178;49.460;10.850;2023-12-20T11:59:28;1.90;;;1.70;;
41436;SDS011;27178;49.460;10.850;2023-12-20T12:01:56;2.17;;;1.80;;
41436;SDS011;27178;49.460;10.850;2023-12-20T12:04:28;3.07;;;1.50;;
41436;SDS011;27178;49.460;10.850;2023-12-20T12:06:56;5.13;;;1.90;;
41436;SDS011;27178;49.460;10.850;2023-12-20T12:09:26;2.60;;;1.63;;
41436;SDS011;27178;49.460;10.850;2023-12-20T12:11:55;3.13;;;1.60;;
41436;SDS011;27178;49.460;10.850;2023-12-20T12:14:23;2.17;;;1.63;;
41436;SDS011;27178;49.460;10.850;2023-12-20T12:16:52;1.93;;;1.70;;
41436;SDS011;27178;49.460;10.850;2023-12-20T12:19:21;3.87;;;1.87;;
41436;SDS011;27178;49.460;10.850;2023-12-20T12:21:50;2.00;;;1.50;;
41436;SDS011;27178;49.460;10.850;2023-12-20T12:24:20;1.87;;;1.53;;
41436;SDS011;27178;49.460;10.850;2023-12-20T12:26:53;3.33;;;1.50;;
41436;SDS011;27178;49.460;10.850;2023-12-20T12:29:25;2.50;;;1.97;;
41436;SDS011;27178;49.460;10.850;2023-12-20T12:31:53;3.30;;;1.97;;
41436;SDS011;27178;49.460;10.850;2023-12-20T12:34:22;2.73;;;1.73;;
41436;SDS011;27178;49.460;10.850;2023-12-20T12:36:50;2.00;;;1.73;;
41436;SDS011;27178;49.460;10.850;2023-12-20T12:39:19;3.90;;;2.00;;
41436;SDS011;27178;49.460;10.850;2023-12-20T12:41:47;2.87;;;1.93;;
41436;SDS011;27178;49.460;10.850;2023-12-20T12:44:17;2.97;;;2.20;;
41436;SDS011;27178;49.460;10.850;2023-12-20T12:46:46;2.23;;;1.90;;
41436;SDS011;27178;49.460;10.850;2023-12-20T12:49:17;2.47;;;1.90;;
41436;SDS011;27178;49.460;10.850;2023-12-20T12:51:45;4.00;;;2.00;;
41436;SDS011;27178;49.460;10.850;2023-12-20T12:54:13;3.40;;;1.90;;
41436;SDS011;27178;49.460;10.850;2023-12-20T12:56:42;3.43;;;1.80;;
41436;SDS011;27178;49.460;10.850;2023-12-20T12:59:11;3.17;;;1.87;;
41436;SDS011;27178;49.460;10.850;2023-12-20T13:01:41;6.23;;;1.60;;
41436;SDS011;27178;49.460;10.850;2023-12-20T13:04:09;2.03;;;1.40;;
41436;SDS011;27178;49.460;10.850;2023-12-20T13:06:38;3.33;;;1.53;;
41436;SDS011;27178;49.460;10.850;2023-12-20T13:09:08;2.00;;;1.70;;
41436;SDS011;27178;49.460;10.850;2023-12-20T13:11:37;1.70;;;1.40;;
41436;SDS011;27178;49.460;10.850;2023-12-20T13:14:08;2.20;;;1.50;;
41436;SDS011;27178;49.460;10.850;2023-12-20T13:16:42;2.50;;;1.40;;
41436;SDS011;27178;49.460;10.850;2023-12-20T13:19:12;2.50;;;1.40;;
41436;SDS011;27178;49.460;10.850;2023-12-20T13:21:40;3.53;;;1.83;;
41436;SDS011;27178;49.460;10.850;2023-12-20T13:24:09;3.47;;;1.63;;
41436;SDS011;27178;49.460;10.850;2023-12-20T13:26:37;1.80;;;1.40;;
41436;SDS011;27178;49.460;10.850;2023-12-20T13:29:05;3.23;;;1.77;;
41436;SDS011;27178;49.460;10.850;2023-12-20T13:31:33;3.37;;;1.67;;
41436;SDS011;27178;49.460;10.850;2023-12-20T13:34:04;2.67;;;1.77;;
41436;SDS011;27178;49.460;10.850;2023-12-20T13:36:34;4.40;;;2.30;;
41436;SDS011;27178;49.460;10.850;2023-12-20T13:39:02;3.97;;;1.90;;
41436;SDS011;27178;49.460;10.850;2023-12-20T13:41:31;6.37;;;2.57;;
41436;SDS011;27178;49.460;10.850;2023-12-20T13:43:59;3.73;;;2.07;;
41436;SDS011;27178;49.460;10.850;2023-12-20T13:46:29;8.57;;;2.30;;
41436;SDS011;27178;49.460;10.850;2023-12-20T13:48:58;3.80;;;1.80;;
41436;SDS011;27178;49.460;10.850;2023-12-20T13:51:29;2.53;;;2.00;;
41436;SDS011;27178;49.460;10.850;2023-12-20T13:53:57;3.40;;;2.00;;
41436;SDS011;27178;49.460;10.850;2023-12-20T13:56:26;2.13;;;1.70;;
41436;SDS011;27178;49.460;10.850;2023-12-20T13:58:54;4.40;;;2.20;;
41436;SDS011;27178;49.460;10.850;2023-12-20T14:01:23;3.77;;;2.60;;
41436;SDS011;27178;49.460;10.850;2023-12-20T14:03:53;3.37;;;1.93;;
41436;SDS011;27178;49.460;10.850;2023-12-20T14:06:21;4.07;;;2.40;;
41436;SDS011;27178;49.460;10.850;2023-12-20T14:08:51;3.57;;;2.27;;
41436;SDS011;27178;49.460;10.850;2023-12-20T14:11:20;2.43;;;1.77;;
41436;SDS011;27178;49.460;10.850;2023-12-20T14:13:50;2.57;;;1.90;;
41436;SDS011;27178;49.460;10.850;2023-12-20T14:16:19;2.77;;;1.70;;
41436;SDS011;27178;49.460;10.850;2023-12-20T14:18:47;3.03;;;1.40;;
41436;SDS011;27178;49.460;10.850;2023-12-20T14:21:16;2.73;;;1.60;;
41436;SDS011;27178;49.460;10.850;2023-12-20T14:23:46;1.77;;;1.50;;
41436;SDS011;27178;49.460;10.850;2023-12-20T14:26:16;2.63;;;1.60;;
41436;SDS011;27178;49.460;10.850;2023-12-20T14:28:45;1.93;;;1.67;;
41436;SDS011;27178;49.460;10.850;2023-12-20T14:31:13;2.40;;;1.57;;
41436;SDS011;27178;49.460;10.850;2023-12-20T14:33:42;4.70;;;1.60;;
41436;SDS011;27178;49.460;10.850;2023-12-20T14:36:10;2.57;;;2.03;;
41436;SDS011;27178;49.460;10.850;2023-12-20T14:38:39;2.43;;;1.83;;
41436;SDS011;27178;49.460;10.850;2023-12-20T14:41:08;4.23;;;1.87;;
41436;SDS011;27178;49.460;10.850;2023-12-20T14:43:37;3.20;;;2.10;;
41436;SDS011;27178;49.460;10.850;2023-12-20T14:46:05;2.37;;;1.83;;